map of AUC home
AUC - Airport
Location
City:  Arauca, Arauca, Colombia
Name:Santiago Pérez Quiroz Airport
ICAO:SKUC
IATA:AUC

Details
Type:Airport (Aerodrome, Airfield)
Latitude:7°04'08"N (7.068889)
Longitude:70°44'13"W (-70.736943)
Elevation:420 ft (128 m)
Variation:9.91°W (WMM2015 magnetic declination)
-0.12° annual change
Runways:1
Longest:6890 × 98 ft (2100 × 30 m), paved

Time
Time Zone:UTC-5
Local Time:

Weather
METAR:SKUC 190300Z 00000KT 9999 BKN020 25/25 A2988

Related Locations
Nearby:
Farthest:CXP: 12390 mi / 19940 km
Cilacap [Tunggul Wulung], JT, ID

Find:

   beyond  
but within

Other Information
Maps:
NOTAMs:
Links:
Sources:

  
  • flag of Colombia
  • flag of Arauca
  

Sectional Chart

Flight Planning
at skyvector.com

Satellite Image

Google Maps Satellite view

 

Copyright © 2004-2018 Karl L. Swartz. All rights reserved.
The Great Circle Mapper name and logo are trademarks of the Great Circle Mapper.
All other trademarks mentioned herein belong to their respective owners.
Please see credits for attibutions and further copyright information.

  Follow gcmap on Facebook Follow gcmap on Twitter Follow gcmap on Google+ GCmap on LinkedIn

hCard Microformat

Geo Microformat